sensor_id;sensor_type;location;lat;lon;timestamp;pressure;altitude;pressure_sealevel;temperature;humidity
19596;BME280;9945;46.010;8.946;2023-04-10T00:01:14;97789.03;;;14.39;45.57
19596;BME280;9945;46.010;8.946;2023-04-10T00:03:41;97795.16;;;14.48;45.35
19596;BME280;9945;46.010;8.946;2023-04-10T00:06:08;97798.13;;;14.45;46.07
19596;BME280;9945;46.010;8.946;2023-04-10T00:08:35;97792.50;;;14.48;45.97
19596;BME280;9945;46.010;8.946;2023-04-10T00:11:02;97789.88;;;14.48;45.70
19596;BME280;9945;46.010;8.946;2023-04-10T00:13:31;97789.03;;;14.39;46.42
19596;BME280;9945;46.010;8.946;2023-04-10T00:15:58;97792.19;;;14.43;46.26
19596;BME280;9945;46.010;8.946;2023-04-10T00:18:24;97803.78;;;14.32;45.85
19596;BME280;9945;46.010;8.946;2023-04-10T00:20:51;97798.31;;;14.25;45.85
19596;BME280;9945;46.010;8.946;2023-04-10T00:23:18;97799.00;;;14.27;46.69
19596;BME280;9945;46.010;8.946;2023-04-10T00:25:46;97800.59;;;14.20;45.77
19596;BME280;9945;46.010;8.946;2023-04-10T00:28:13;97802.94;;;14.31;45.66
19596;BME280;9945;46.010;8.946;2023-04-10T00:30:43;97805.13;;;14.36;45.36
19596;BME280;9945;46.010;8.946;2023-04-10T00:33:10;97802.91;;;14.23;45.50
19596;BME280;9945;46.010;8.946;2023-04-10T00:35:36;97808.94;;;14.16;46.69
19596;BME280;9945;46.010;8.946;2023-04-10T00:38:03;97804.81;;;14.13;46.98
19596;BME280;9945;46.010;8.946;2023-04-10T00:40:30;97807.09;;;14.08;46.49
19596;BME280;9945;46.010;8.946;2023-04-10T00:42:57;97805.63;;;14.14;45.47
19596;BME280;9945;46.010;8.946;2023-04-10T00:45:24;97810.41;;;14.10;46.68
19596;BME280;9945;46.010;8.946;2023-04-10T00:47:52;97803.34;;;14.11;45.82
19596;BME280;9945;46.010;8.946;2023-04-10T00:50:20;97800.06;;;14.17;45.43
19596;BME280;9945;46.010;8.946;2023-04-10T00:52:47;97803.50;;;14.09;45.39
19596;BME280;9945;46.010;8.946;2023-04-10T00:55:16;97804.31;;;14.10;46.25
19596;BME280;9945;46.010;8.946;2023-04-10T00:57:44;97803.34;;;14.11;46.41
19596;BME280;9945;46.010;8.946;2023-04-10T01:00:12;97806.47;;;14.14;46.09
19596;BME280;9945;46.010;8.946;2023-04-10T01:02:39;97803.94;;;14.05;46.38
19596;BME280;9945;46.010;8.946;2023-04-10T01:05:08;97794.97;;;14.15;45.38
19596;BME280;9945;46.010;8.946;2023-04-10T01:07:48;97790.91;;;13.95;46.28
19596;BME280;9945;46.010;8.946;2023-04-10T01:10:25;97788.97;;;14.05;46.45
19596;BME280;9945;46.010;8.946;2023-04-10T01:13:00;97797.19;;;14.02;46.15
19596;BME280;9945;46.010;8.946;2023-04-10T01:15:37;97792.44;;;14.06;46.96
19596;BME280;9945;46.010;8.946;2023-04-10T01:18:15;97795.00;;;13.97;45.89
19596;BME280;9945;46.010;8.946;2023-04-10T01:20:46;97794.09;;;14.07;46.44
19596;BME280;9945;46.010;8.946;2023-04-10T01:23:34;97801.78;;;14.00;46.02
19596;BME280;9945;46.010;8.946;2023-04-10T01:26:08;97793.63;;;14.11;46.69
19596;BME280;9945;46.010;8.946;2023-04-10T01:28:52;97802.66;;;14.09;46.11
19596;BME280;9945;46.010;8.946;2023-04-10T01:31:29;97806.94;;;14.10;45.31
19596;BME280;9945;46.010;8.946;2023-04-10T01:34:01;97801.31;;;14.05;46.17
19596;BME280;9945;46.010;8.946;2023-04-10T01:36:36;97797.78;;;13.96;45.39
19596;BME280;9945;46.010;8.946;2023-04-10T01:39:04;97798.13;;;13.93;45.72
19596;BME280;9945;46.010;8.946;2023-04-10T01:41:33;97802.34;;;13.86;46.53
19596;BME280;9945;46.010;8.946;2023-04-10T01:44:02;97802.50;;;13.84;47.49
19596;BME280;9945;46.010;8.946;2023-04-10T01:46:31;97804.59;;;13.81;47.51
19596;BME280;9945;46.010;8.946;2023-04-10T01:49:00;97802.66;;;13.83;47.41
19596;BME280;9945;46.010;8.946;2023-04-10T01:51:30;97800.16;;;13.81;45.94
19596;BME280;9945;46.010;8.946;2023-04-10T01:53:59;97811.53;;;13.82;47.32
19596;BME280;9945;46.010;8.946;2023-04-10T01:56:27;97803.84;;;13.71;45.53
19596;BME280;9945;46.010;8.946;2023-04-10T01:58:55;97802.19;;;13.70;46.41
19596;BME280;9945;46.010;8.946;2023-04-10T02:01:23;97804.19;;;13.68;45.97
19596;BME280;9945;46.010;8.946;2023-04-10T02:03:52;97800.56;;;13.69;46.99
19596;BME280;9945;46.010;8.946;2023-04-10T02:06:25;97798.25;;;13.66;46.18
19596;BME280;9945;46.010;8.946;2023-04-10T02:08:58;97792.44;;;13.62;46.54
19596;BME280;9945;46.010;8.946;2023-04-10T02:11:38;97797.06;;;13.60;46.10
19596;BME280;9945;46.010;8.946;2023-04-10T02:14:10;97800.81;;;13.57;48.17
19596;BME280;9945;46.010;8.946;2023-04-10T02:16:39;97800.81;;;13.57;47.32
19596;BME280;9945;46.010;8.946;2023-04-10T02:19:07;97811.34;;;13.57;46.48
19596;BME280;9945;46.010;8.946;2023-04-10T02:21:35;97807.59;;;13.60;46.30
19596;BME280;9945;46.010;8.946;2023-04-10T02:24:05;97805.09;;;13.58;47.06
19596;BME280;9945;46.010;8.946;2023-04-10T02:26:43;97815.91;;;13.55;46.41
19596;BME280;9945;46.010;8.946;2023-04-10T02:29:10;97816.59;;;13.57;47.82
19596;BME280;9945;46.010;8.946;2023-04-10T02:31:38;97818.47;;;13.47;47.63
19596;BME280;9945;46.010;8.946;2023-04-10T02:34:05;97816.38;;;13.51;48.54
19596;BME280;9945;46.010;8.946;2023-04-10T02:36:33;97820.34;;;13.55;48.46
19596;BME280;9945;46.010;8.946;2023-04-10T02:39:00;97820.50;;;13.53;47.87
19596;BME280;9945;46.010;8.946;2023-04-10T02:41:26;97822.63;;;13.50;48.37
19596;BME280;9945;46.010;8.946;2023-04-10T02:43:53;97822.91;;;13.47;47.53
19596;BME280;9945;46.010;8.946;2023-04-10T02:46:20;97828.72;;;13.50;47.38
19596;BME280;9945;46.010;8.946;2023-04-10T02:48:48;97831.34;;;13.50;46.90
19596;BME280;9945;46.010;8.946;2023-04-10T02:51:15;97827.34;;;13.46;47.07
19596;BME280;9945;46.010;8.946;2023-04-10T02:53:42;97815.16;;;13.45;46.94
19596;BME280;9945;46.010;8.946;2023-04-10T02:56:09;97824.84;;;13.45;47.08
19596;BME280;9945;46.010;8.946;2023-04-10T02:58:37;97822.84;;;13.39;46.23
19596;BME280;9945;46.010;8.946;2023-04-10T03:01:04;97826.00;;;13.42;47.44
19596;BME280;9945;46.010;8.946;2023-04-10T03:03:31;97819.84;;;13.34;47.44
19596;BME280;9945;46.010;8.946;2023-04-10T03:05:59;97825.31;;;13.40;45.18
19596;BME280;9945;46.010;8.946;2023-04-10T03:08:26;97827.13;;;13.40;46.93
19596;BME280;9945;46.010;8.946;2023-04-10T03:10:54;97819.31;;;13.48;46.76
19596;BME280;9945;46.010;8.946;2023-04-10T03:13:21;97819.38;;;13.38;46.38
19596;BME280;9945;46.010;8.946;2023-04-10T03:15:48;97822.69;;;13.22;45.74
19596;BME280;9945;46.010;8.946;2023-04-10T03:18:15;97815.16;;;13.27;46.52
19596;BME280;9945;46.010;8.946;2023-04-10T03:20:42;97820.59;;;13.26;47.15
19596;BME280;9945;46.010;8.946;2023-04-10T03:23:10;97818.41;;;13.21;46.92
19596;BME280;9945;46.010;8.946;2023-04-10T03:25:37;97820.09;;;13.13;46.50
19596;BME280;9945;46.010;8.946;2023-04-10T03:28:05;97819.31;;;13.03;46.59
19596;BME280;9945;46.010;8.946;2023-04-10T03:30:32;97830.81;;;13.02;47.55
19596;BME280;9945;46.010;8.946;2023-04-10T03:33:01;97823.75;;;13.02;46.96
19596;BME280;9945;46.010;8.946;2023-04-10T03:35:28;97835.09;;;13.03;46.56
19596;BME280;9945;46.010;8.946;2023-04-10T03:37:55;97832.38;;;12.95;47.32
19596;BME280;9945;46.010;8.946;2023-04-10T03:40:23;97830.06;;;12.92;46.59
19596;BME280;9945;46.010;8.946;2023-04-10T03:42:50;97841.53;;;12.91;45.60
19596;BME280;9945;46.010;8.946;2023-04-10T03:45:16;97829.28;;;12.81;47.72
19596;BME280;9945;46.010;8.946;2023-04-10T03:47:43;97832.13;;;12.88;46.52
19596;BME280;9945;46.010;8.946;2023-04-10T03:50:10;97833.69;;;12.81;48.00
19596;BME280;9945;46.010;8.946;2023-04-10T03:52:37;97836.06;;;12.84;45.96
19596;BME280;9945;46.010;8.946;2023-04-10T03:55:05;97840.03;;;12.88;46.79
19596;BME280;9945;46.010;8.946;2023-04-10T03:57:33;97847.63;;;12.91;46.70
19596;BME280;9945;46.010;8.946;2023-04-10T04:00:00;97848.50;;;12.82;47.20
19596;BME280;9945;46.010;8.946;2023-04-10T04:02:27;97847.94;;;12.78;47.02
19596;BME280;9945;46.010;8.946;2023-04-10T04:04:54;97844.81;;;12.75;45.84
19596;BME280;9945;46.010;8.946;2023-04-10T04:07:21;97844.94;;;12.73;48.14
19596;BME280;9945;46.010;8.946;2023-04-10T04:09:47;97847.84;;;12.70;48.24
19596;BME280;9945;46.010;8.946;2023-04-10T04:12:14;97850.78;;;12.67;48.24
19596;BME280;9945;46.010;8.946;2023-04-10T04:14:42;97844.16;;;12.63;47.40
19596;BME280;9945;46.010;8.946;2023-04-10T04:17:09;97850.38;;;12.62;48.73
19596;BME280;9945;46.010;8.946;2023-04-10T04:19:36;97848.47;;;12.55;47.54
19596;BME280;9945;46.010;8.946;2023-04-10T04:22:03;97853.50;;;12.48;47.74
19596;BME280;9945;46.010;8.946;2023-04-10T04:24:30;97856.50;;;12.53;47.97
19596;BME280;9945;46.010;8.946;2023-04-10T04:26:57;97855.97;;;12.49;48.50
19596;BME280;9945;46.010;8.946;2023-04-10T04:29:23;97859.69;;;12.57;49.00
19596;BME280;9945;46.010;8.946;2023-04-10T04:31:52;97859.69;;;12.57;49.30
19596;BME280;9945;46.010;8.946;2023-04-10T04:34:18;97849.84;;;12.59;48.02
19596;BME280;9945;46.010;8.946;2023-04-10T04:36:45;97853.25;;;12.69;49.03
19596;BME280;9945;46.010;8.946;2023-04-10T04:39:12;97858.38;;;12.70;48.07
19596;BME280;9945;46.010;8.946;2023-04-10T04:41:39;97859.63;;;12.66;48.25
19596;BME280;9945;46.010;8.946;2023-04-10T04:44:06;97862.94;;;12.68;47.61
19596;BME280;9945;46.010;8.946;2023-04-10T04:46:33;97852.81;;;12.73;48.83
19596;BME280;9945;46.010;8.946;2023-04-10T04:49:01;97861.81;;;12.71;50.16
19596;BME280;9945;46.010;8.946;2023-04-10T04:51:28;97861.13;;;12.69;49.31
19596;BME280;9945;46.010;8.946;2023-04-10T04:53:55;97862.66;;;12.71;49.69
19596;BME280;9945;46.010;8.946;2023-04-10T04:56:22;97857.97;;;12.65;51.11
19596;BME280;9945;46.010;8.946;2023-04-10T04:58:49;97861.16;;;12.59;50.19
19596;BME280;9945;46.010;8.946;2023-04-10T05:01:16;97855.78;;;12.61;51.28
19596;BME280;9945;46.010;8.946;2023-04-10T05:03:43;97853.69;;;12.64;49.84
19596;BME280;9945;46.010;8.946;2023-04-10T05:06:11;97858.25;;;12.62;50.14
19596;BME280;9945;46.010;8.946;2023-04-10T05:08:38;97864.06;;;12.66;51.95
19596;BME280;9945;46.010;8.946;2023-04-10T05:11:06;97864.94;;;12.57;50.61
19596;BME280;9945;46.010;8.946;2023-04-10T05:13:32;97862.16;;;12.58;50.50
19596;BME280;9945;46.010;8.946;2023-04-10T05:15:59;97866.97;;;12.63;50.42
19596;BME280;9945;46.010;8.946;2023-04-10T05:18:26;97872.78;;;12.66;51.86
19596;BME280;9945;46.010;8.946;2023-04-10T05:20:53;97876.72;;;12.80;49.68
19596;BME280;9945;46.010;8.946;2023-04-10T05:23:21;97884.16;;;12.84;51.50
19596;BME280;9945;46.010;8.946;2023-04-10T05:25:48;97879.06;;;12.83;50.69
19596;BME280;9945;46.010;8.946;2023-04-10T05:28:15;97875.06;;;12.79;52.01
19596;BME280;9945;46.010;8.946;2023-04-10T05:30:42;97877.94;;;12.85;49.82
19596;BME280;9945;46.010;8.946;2023-04-10T05:33:09;97885.16;;;12.83;50.68
19596;BME280;9945;46.010;8.946;2023-04-10T05:35:36;97888.53;;;12.94;51.05
19596;BME280;9945;46.010;8.946;2023-04-10T05:38:02;97877.78;;;12.87;50.06
19596;BME280;9945;46.010;8.946;2023-04-10T05:40:31;97884.63;;;12.70;50.46
19596;BME280;9945;46.010;8.946;2023-04-10T05:42:57;97889.31;;;12.76;51.37
19596;BME280;9945;46.010;8.946;2023-04-10T05:45:24;97901.19;;;12.80;51.03
19596;BME280;9945;46.010;8.946;2023-04-10T05:47:53;97896.88;;;12.89;51.44
19596;BME280;9945;46.010;8.946;2023-04-10T05:50:19;97896.72;;;12.91;49.57
19596;BME280;9945;46.010;8.946;2023-04-10T05:52:46;97900.31;;;12.89;49.25
19596;BME280;9945;46.010;8.946;2023-04-10T05:55:13;97899.75;;;12.96;51.18
19596;BME280;9945;46.010;8.946;2023-04-10T05:57:41;97899.38;;;12.91;50.31
19596;BME280;9945;46.010;8.946;2023-04-10T06:00:09;97901.44;;;12.87;49.37
19596;BME280;9945;46.010;8.946;2023-04-10T06:02:37;97903.22;;;12.86;49.14
19596;BME280;9945;46.010;8.946;2023-04-10T06:05:04;97899.50;;;12.89;50.16
19596;BME280;9945;46.010;8.946;2023-04-10T06:07:31;97905.97;;;12.95;49.05
19596;BME280;9945;46.010;8.946;2023-04-10T06:09:58;97909.09;;;13.08;49.46
19596;BME280;9945;46.010;8.946;2023-04-10T06:12:25;97916.16;;;13.17;48.07
19596;BME280;9945;46.010;8.946;2023-04-10T06:14:53;97918.81;;;13.35;47.62
19596;BME280;9945;46.010;8.946;2023-04-10T06:17:20;97917.75;;;13.45;47.13
19596;BME280;9945;46.010;8.946;2023-04-10T06:19:48;97926.19;;;13.49;49.03
19596;BME280;9945;46.010;8.946;2023-04-10T06:22:15;97928.75;;;13.58;47.65
19596;BME280;9945;46.010;8.946;2023-04-10T06:24:42;97922.22;;;13.62;47.72
19596;BME280;9945;46.010;8.946;2023-04-10T06:27:09;97923.50;;;13.76;47.39
19596;BME280;9945;46.010;8.946;2023-04-10T06:29:36;97927.34;;;13.82;47.26
19596;BME280;9945;46.010;8.946;2023-04-10T06:32:05;97924.56;;;14.01;47.21
19596;BME280;9945;46.010;8.946;2023-04-10T06:34:31;97930.84;;;14.26;44.50
19596;BME280;9945;46.010;8.946;2023-04-10T06:36:58;97926.84;;;14.65;44.21
19596;BME280;9945;46.010;8.946;2023-04-10T06:39:25;97929.00;;;14.96;43.41
19596;BME280;9945;46.010;8.946;2023-04-10T06:41:52;97929.38;;;15.09;42.43
19596;BME280;9945;46.010;8.946;2023-04-10T06:44:19;97928.16;;;15.29;42.89
19596;BME280;9945;46.010;8.946;2023-04-10T06:46:46;97930.34;;;15.50;42.53
19596;BME280;9945;46.010;8.946;2023-04-10T06:49:14;97929.41;;;15.59;41.84
19596;BME280;9945;46.010;8.946;2023-04-10T06:51:41;97933.88;;;15.67;41.57
19596;BME280;9945;46.010;8.946;2023-04-10T06:54:10;97932.50;;;15.46;41.98
19596;BME280;9945;46.010;8.946;2023-04-10T06:56:36;97934.38;;;15.54;42.27
19596;BME280;9945;46.010;8.946;2023-04-10T06:59:03;97938.69;;;15.63;42.43
19596;BME280;9945;46.010;8.946;2023-04-10T07:01:30;97930.31;;;15.42;40.64
19596;BME280;9945;46.010;8.946;2023-04-10T07:03:57;97928.34;;;15.44;40.28
19596;BME280;9945;46.010;8.946;2023-04-10T07:06:25;97930.91;;;15.62;41.58
19596;BME280;9945;46.010;8.946;2023-04-10T07:08:53;97932.91;;;15.76;41.13
19596;BME280;9945;46.010;8.946;2023-04-10T07:11:20;97933.38;;;15.55;40.98
19596;BME280;9945;46.010;8.946;2023-04-10T07:13:47;97927.34;;;15.37;40.51
19596;BME280;9945;46.010;8.946;2023-04-10T07:16:17;97926.38;;;15.38;41.14
19596;BME280;9945;46.010;8.946;2023-04-10T07:18:44;97929.41;;;15.59;41.40
19596;BME280;9945;46.010;8.946;2023-04-10T07:21:11;97923.19;;;15.84;40.98
19596;BME280;9945;46.010;8.946;2023-04-10T07:23:39;97919.41;;;15.95;39.78
19596;BME280;9945;46.010;8.946;2023-04-10T07:26:06;97921.22;;;16.27;39.06
19596;BME280;9945;46.010;8.946;2023-04-10T07:28:33;97915.59;;;16.38;40.01
19596;BME280;9945;46.010;8.946;2023-04-10T07:31:00;97920.84;;;16.79;37.54
19596;BME280;9945;46.010;8.946;2023-04-10T07:33:27;97922.53;;;16.72;39.05
19596;BME280;9945;46.010;8.946;2023-04-10T07:35:54;97924.63;;;16.84;38.88
19596;BME280;9945;46.010;8.946;2023-04-10T07:38:21;97920.31;;;16.91;38.29
19596;BME280;9945;46.010;8.946;2023-04-10T07:40:54;97921.97;;;16.84;37.38
19596;BME280;9945;46.010;8.946;2023-04-10T07:43:21;97923.50;;;16.79;38.70
19596;BME280;9945;46.010;8.946;2023-04-10T07:45:48;97920.03;;;16.78;38.13
19596;BME280;9945;46.010;8.946;2023-04-10T07:48:15;97926.94;;;16.87;38.91
19596;BME280;9945;46.010;8.946;2023-04-10T07:50:42;97917.91;;;16.74;37.80
19596;BME280;9945;46.010;8.946;2023-04-10T07:53:09;97920.50;;;16.90;38.21
19596;BME280;9945;46.010;8.946;2023-04-10T07:55:37;97919.53;;;16.50;36.00
19596;BME280;9945;46.010;8.946;2023-04-10T07:58:05;97910.94;;;16.73;36.71
19596;BME280;9945;46.010;8.946;2023-04-10T08:00:32;97913.81;;;17.02;36.32
19596;BME280;9945;46.010;8.946;2023-04-10T08:02:59;97914.81;;;17.09;36.15
19596;BME280;9945;46.010;8.946;2023-04-10T08:05:26;97919.50;;;17.30;34.68
19596;BME280;9945;46.010;8.946;2023-04-10T08:07:53;97932.97;;;17.51;34.30
19596;BME280;9945;46.010;8.946;2023-04-10T08:10:20;97919.28;;;17.39;33.57
19596;BME280;9945;46.010;8.946;2023-04-10T08:12:47;97926.53;;;17.46;34.98
19596;BME280;9945;46.010;8.946;2023-04-10T08:15:16;97935.25;;;17.54;34.68
19596;BME280;9945;46.010;8.946;2023-04-10T08:17:43;97937.69;;;17.72;33.53
19596;BME280;9945;46.010;8.946;2023-04-10T08:20:11;97932.28;;;17.88;32.66
19596;BME280;9945;46.010;8.946;2023-04-10T08:22:38;97930.63;;;17.87;32.67
19596;BME280;9945;46.010;8.946;2023-04-10T08:25:05;97933.63;;;17.84;33.17
19596;BME280;9945;46.010;8.946;2023-04-10T08:27:32;97934.59;;;17.60;33.83
19596;BME280;9945;46.010;8.946;2023-04-10T08:29:59;97930.69;;;18.02;34.35
19596;BME280;9945;46.010;8.946;2023-04-10T08:32:27;97935.50;;;18.44;34.38
19596;BME280;9945;46.010;8.946;2023-04-10T08:34:54;97928.06;;;18.62;32.94
19596;BME280;9945;46.010;8.946;2023-04-10T08:37:21;97933.28;;;18.85;32.35
19596;BME280;9945;46.010;8.946;2023-04-10T08:39:48;97933.94;;;18.87;31.56
19596;BME280;9945;46.010;8.946;2023-04-10T08:42:15;97923.69;;;18.84;31.96
19596;BME280;9945;46.010;8.946;2023-04-10T08:44:42;97923.84;;;18.68;32.03
19596;BME280;9945;46.010;8.946;2023-04-10T08:47:11;97928.72;;;18.79;31.58
19596;BME280;9945;46.010;8.946;2023-04-10T08:49:46;97924.25;;;18.79;32.52
19596;BME280;9945;46.010;8.946;2023-04-10T08:52:14;97927.03;;;18.63;32.37
19596;BME280;9945;46.010;8.946;2023-04-10T08:54:47;97928.31;;;18.30;33.01
19596;BME280;9945;46.010;8.946;2023-04-10T08:57:16;97924.25;;;18.79;32.16
19596;BME280;9945;46.010;8.946;2023-04-10T08:59:45;97935.59;;;19.03;32.05
19596;BME280;9945;46.010;8.946;2023-04-10T09:02:12;97925.41;;;19.36;31.24
19596;BME280;9945;46.010;8.946;2023-04-10T09:04:40;97919.19;;;20.00;30.66
19596;BME280;9945;46.010;8.946;2023-04-10T09:07:12;97921.41;;;19.97;30.34
19596;BME280;9945;46.010;8.946;2023-04-10T09:09:39;97927.06;;;21.20;28.83
19596;BME280;9945;46.010;8.946;2023-04-10T09:12:06;97923.00;;;21.78;27.06
19596;BME280;9945;46.010;8.946;2023-04-10T09:14:34;97919.81;;;22.69;26.67
19596;BME280;9945;46.010;8.946;2023-04-10T09:17:14;97909.66;;;23.23;25.98
19596;BME280;9945;46.010;8.946;2023-04-10T09:19:44;97911.53;;;24.37;24.53
19596;BME280;9945;46.010;8.946;2023-04-10T09:22:11;97919.16;;;25.26;22.87
19596;BME280;9945;46.010;8.946;2023-04-10T09:24:40;97907.75;;;25.31;23.50
19596;BME280;9945;46.010;8.946;2023-04-10T09:27:08;97901.16;;;24.90;23.83
19596;BME280;9945;46.010;8.946;2023-04-10T09:29:40;97896.84;;;25.62;23.47
19596;BME280;9945;46.010;8.946;2023-04-10T09:32:07;97892.13;;;26.17;22.71
19596;BME280;9945;46.010;8.946;2023-04-10T09:34:52;97898.28;;;25.94;22.73
19596;BME280;9945;46.010;8.946;2023-04-10T09:37:19;97898.81;;;25.85;22.92
19596;BME280;9945;46.010;8.946;2023-04-10T09:39:47;97893.78;;;26.18;22.81
19596;BME280;9945;46.010;8.946;2023-04-10T09:42:14;97895.13;;;26.86;21.56
19596;BME280;9945;46.010;8.946;2023-04-10T09:44:41;97884.63;;;27.59;21.23
19596;BME280;9945;46.010;8.946;2023-04-10T09:47:16;97880.84;;;28.50;21.06
19596;BME280;9945;46.010;8.946;2023-04-10T09:49:46;97891.03;;;28.15;20.13
19596;BME280;9945;46.010;8.946;2023-04-10T09:52:25;97875.63;;;28.44;20.66
19596;BME280;9945;46.010;8.946;2023-04-10T09:54:54;97882.00;;;27.93;20.18
19596;BME280;9945;46.010;8.946;2023-04-10T09:57:22;97873.81;;;27.71;20.71
19596;BME280;9945;46.010;8.946;2023-04-10T09:59:51;97879.09;;;27.14;21.20
19596;BME280;9945;46.010;8.946;2023-04-10T10:02:19;97872.81;;;26.27;21.87
19596;BME280;9945;46.010;8.946;2023-04-10T10:04:47;97861.97;;;25.62;22.74
19596;BME280;9945;46.010;8.946;2023-04-10T10:07:15;97868.22;;;25.56;22.33
19596;BME280;9945;46.010;8.946;2023-04-10T10:09:45;97861.97;;;25.92;22.88
19596;BME280;9945;46.010;8.946;2023-04-10T10:12:15;97867.22;;;26.40;22.52
19596;BME280;9945;46.010;8.946;2023-04-10T10:14:47;97863.66;;;26.16;22.74
19596;BME280;9945;46.010;8.946;2023-04-10T10:17:18;97868.81;;;27.51;21.47
19596;BME280;9945;46.010;8.946;2023-04-10T10:19:54;97865.47;;;28.51;20.85
19596;BME280;9945;46.010;8.946;2023-04-10T10:22:24;97856.16;;;28.92;19.47
19596;BME280;9945;46.010;8.946;2023-04-10T10:24:55;97857.13;;;30.27;19.10
19596;BME280;9945;46.010;8.946;2023-04-10T10:27:25;97846.75;;;30.98;19.03
19596;BME280;9945;46.010;8.946;2023-04-10T10:29:53;97854.66;;;31.67;17.44
19596;BME280;9945;46.010;8.946;2023-04-10T10:32:23;97855.03;;;31.23;17.62
19596;BME280;9945;46.010;8.946;2023-04-10T10:34:52;97853.13;;;31.13;18.08
19596;BME280;9945;46.010;8.946;2023-04-10T10:37:19;97856.56;;;31.04;17.85
19596;BME280;9945;46.010;8.946;2023-04-10T10:39:55;97854.38;;;31.06;18.52
19596;BME280;9945;46.010;8.946;2023-04-10T10:42:29;97858.19;;;31.62;17.56
19596;BME280;9945;46.010;8.946;2023-04-10T10:45:05;97846.88;;;31.13;17.75
19596;BME280;9945;46.010;8.946;2023-04-10T10:47:39;97834.75;;;31.26;18.41
19596;BME280;9945;46.010;8.946;2023-04-10T10:50:08;97837.19;;;31.32;17.83
19596;BME280;9945;46.010;8.946;2023-04-10T10:52:40;97835.59;;;30.42;18.01
19596;BME280;9945;46.010;8.946;2023-04-10T10:55:30;97822.09;;;30.84;17.41
19596;BME280;9945;46.010;8.946;2023-04-10T10:58:00;97828.84;;;31.39;17.35
19596;BME280;9945;46.010;8.946;2023-04-10T11:03:27;97819.59;;;30.03;18.12
19596;BME280;9945;46.010;8.946;2023-04-10T11:05:55;97815.94;;;29.12;19.54
19596;BME280;9945;46.010;8.946;2023-04-10T11:08:35;97809.22;;;28.93;19.99
19596;BME280;9945;46.010;8.946;2023-04-10T11:11:06;97811.38;;;28.91;20.62
19596;BME280;9945;46.010;8.946;2023-04-10T11:13:34;97803.50;;;29.11;19.48
19596;BME280;9945;46.010;8.946;2023-04-10T11:16:03;97797.94;;;29.40;18.93
19596;BME280;9945;46.010;8.946;2023-04-10T11:22:00;97801.81;;;28.11;20.77
19596;BME280;9945;46.010;8.946;2023-04-10T11:24:28;97790.78;;;28.46;20.34
19596;BME280;9945;46.010;8.946;2023-04-10T11:26:56;97806.69;;;28.86;19.93
19596;BME280;9945;46.010;8.946;2023-04-10T11:29:32;97795.69;;;28.71;19.59
19596;BME280;9945;46.010;8.946;2023-04-10T11:32:01;97800.84;;;28.73;20.25
19596;BME280;9945;46.010;8.946;2023-04-10T11:34:29;97799.44;;;28.70;19.43
19596;BME280;9945;46.010;8.946;2023-04-10T11:36:58;97789.13;;;28.84;20.85
19596;BME280;9945;46.010;8.946;2023-04-10T11:39:27;97789.25;;;29.38;18.34
19596;BME280;9945;46.010;8.946;2023-04-10T11:41:56;97777.72;;;29.42;19.54
19596;BME280;9945;46.010;8.946;2023-04-10T11:44:28;97792.16;;;29.09;18.90
19596;BME280;9945;46.010;8.946;2023-04-10T11:46:56;97778.84;;;29.24;20.03
19596;BME280;9945;46.010;8.946;2023-04-10T11:49:26;97767.56;;;29.86;19.60
19596;BME280;9945;46.010;8.946;2023-04-10T11:51:53;97778.38;;;29.86;18.16
19596;BME280;9945;46.010;8.946;2023-04-10T11:54:22;97777.84;;;30.21;18.34
19596;BME280;9945;46.010;8.946;2023-04-10T11:56:58;97773.50;;;29.29;18.81
19596;BME280;9945;46.010;8.946;2023-04-10T11:59:26;97764.97;;;28.72;19.30
19596;BME280;9945;46.010;8.946;2023-04-10T12:02:01;97766.47;;;27.46;21.21
19596;BME280;9945;46.010;8.946;2023-04-10T12:04:28;97768.50;;;27.10;21.13
19596;BME280;9945;46.010;8.946;2023-04-10T12:06:56;97769.06;;;27.41;20.77
19596;BME280;9945;46.010;8.946;2023-04-10T12:09:23;97764.75;;;27.85;20.37
19596;BME280;9945;46.010;8.946;2023-04-10T12:11:52;97763.50;;;28.81;19.59
19596;BME280;9945;46.010;8.946;2023-04-10T12:14:21;97756.88;;;29.69;19.40
19596;BME280;9945;46.010;8.946;2023-04-10T12:16:49;97772.50;;;30.68;18.24
19596;BME280;9945;46.010;8.946;2023-04-10T12:19:17;97763.13;;;30.86;18.06
19596;BME280;9945;46.010;8.946;2023-04-10T12:21:45;97771.69;;;30.73;17.65
19596;BME280;9945;46.010;8.946;2023-04-10T12:24:12;97771.16;;;31.48;17.59
19596;BME280;9945;46.010;8.946;2023-04-10T12:26:46;97761.97;;;31.44;17.63
19596;BME280;9945;46.010;8.946;2023-04-10T12:29:14;97752.78;;;30.26;18.42
19596;BME280;9945;46.010;8.946;2023-04-10T12:31:42;97756.00;;;29.59;18.74
19596;BME280;9945;46.010;8.946;2023-04-10T12:34:09;97748.25;;;29.67;18.35
19596;BME280;9945;46.010;8.946;2023-04-10T12:36:36;97752.94;;;30.14;17.87
19596;BME280;9945;46.010;8.946;2023-04-10T12:39:04;97753.69;;;30.94;17.68
19596;BME280;9945;46.010;8.946;2023-04-10T12:41:32;97755.25;;;32.03;16.99
19596;BME280;9945;46.010;8.946;2023-04-10T12:44:07;97753.56;;;31.41;17.29
19596;BME280;9945;46.010;8.946;2023-04-10T12:46:35;97739.28;;;30.78;17.36
19596;BME280;9945;46.010;8.946;2023-04-10T12:49:11;97749.03;;;30.37;19.38
19596;BME280;9945;46.010;8.946;2023-04-10T12:51:45;97740.97;;;30.00;18.33
19596;BME280;9945;46.010;8.946;2023-04-10T12:54:26;97730.81;;;28.78;20.08
19596;BME280;9945;46.010;8.946;2023-04-10T12:56:53;97724.78;;;27.60;20.69
19596;BME280;9945;46.010;8.946;2023-04-10T12:59:20;97719.66;;;25.27;23.19
19596;BME280;9945;46.010;8.946;2023-04-10T13:01:47;97714.50;;;25.14;23.03
19596;BME280;9945;46.010;8.946;2023-04-10T13:04:16;97715.88;;;24.38;24.62
19596;BME280;9945;46.010;8.946;2023-04-10T13:06:43;97716.03;;;23.75;24.78
19596;BME280;9945;46.010;8.946;2023-04-10T13:09:11;97720.19;;;23.40;24.70
19596;BME280;9945;46.010;8.946;2023-04-10T13:11:38;97708.31;;;23.05;26.12
19596;BME280;9945;46.010;8.946;2023-04-10T13:14:04;97712.16;;;22.77;25.69
19596;BME280;9945;46.010;8.946;2023-04-10T13:16:31;97708.22;;;22.22;26.60
19596;BME280;9945;46.010;8.946;2023-04-10T13:18:58;97695.94;;;21.81;27.07
19596;BME280;9945;46.010;8.946;2023-04-10T13:21:26;97689.63;;;21.43;28.29
19596;BME280;9945;46.010;8.946;2023-04-10T13:23:53;97690.03;;;21.40;27.80